CLT TRACON Summary / KCLT TAF
CLT TRACON Summary:
Expect VFR conditions with FEW/SCT050-060 clouds developing between 16-18z. Chances for isolated thunderstorms will increase with afternoon heating, mostly south and west of CLT by 17-19z and also to the north and east by 19-21z. Cells will move towards the east to southeast at 5-15kts. Surface winds will be from the west to southwest at 3-8kts, but variable and gusty near convection. No significant flight hazards are expected in the TRACON airspace outside convection.

Updated:9/2/2014 12:06 PM
CLT Terminal Aerodrome Forecast:

FTUS42 KGSP 021700 RRA
TAFCLT
TAF
KCLT 021744Z 0218/0318 25006KT P6SM SCT050
     FM022100 24008KT P6SM SCT060
      TEMPO 0221/0301 VRB15G25KT 5SM -TSRA BR OVC040CB
     FM030100 22005KT P6SM VCSH BKN050
     FM030600 00000KT P6SM BKN060
     FM031300 36003KT P6SM SCT045=
CLT TRACON Area Remark:
ISOLATED TS POSSIBLE W/SW/S AFTER 18z, and ALL QUADS AFTER 20z.
Convective Gate Forecast / Collaborative Convective Forecast Product / Vertical Wind Profile
Convective Gate Forecast
SIGMETS/ Southeast Radar & Satellite Loops (click on image to enlarge)

Southeast Radar Loop

 



USA.gov is the U.S. government's official web portal to all federal, state and local government web resources and services.